sensor_id;sensor_type;location;lat;lon;timestamp;pressure;altitude;pressure_sealevel;temperature;humidity
73341;BME280;61578;52.002;5.468;2023-01-29T00:00:08;103000.44;;;3.29;80.37
73341;BME280;61578;52.002;5.468;2023-01-29T00:00:39;103004.81;;;3.31;80.29
73341;BME280;61578;52.002;5.468;2023-01-29T00:01:10;103003.06;;;3.30;79.70
73341;BME280;61578;52.002;5.468;2023-01-29T00:01:41;102996.06;;;3.26;79.75
73341;BME280;61578;52.002;5.468;2023-01-29T00:02:12;102989.09;;;3.24;79.84
73341;BME280;61578;52.002;5.468;2023-01-29T00:02:43;103002.19;;;3.31;79.66
73341;BME280;61578;52.002;5.468;2023-01-29T00:03:15;103001.31;;;3.29;79.65
73341;BME280;61578;52.002;5.468;2023-01-29T00:03:45;103008.31;;;3.27;79.80
73341;BME280;61578;52.002;5.468;2023-01-29T00:04:22;103005.69;;;3.26;79.89
73341;BME280;61578;52.002;5.468;2023-01-29T00:04:53;103003.94;;;3.26;79.92
73341;BME280;61578;52.002;5.468;2023-01-29T00:05:24;102988.19;;;3.19;80.54
73341;BME280;61578;52.002;5.468;2023-01-29T00:05:54;102959.31;;;3.05;80.17
73341;BME280;61578;52.002;5.468;2023-01-29T00:06:25;102992.56;;;3.21;79.94
73341;BME280;61578;52.002;5.468;2023-01-29T00:06:56;103006.59;;;3.34;80.07
73341;BME280;61578;52.002;5.468;2023-01-29T00:07:27;103008.34;;;3.35;80.07
73341;BME280;61578;52.002;5.468;2023-01-29T00:07:57;103007.44;;;3.38;79.61
73341;BME280;61578;52.002;5.468;2023-01-29T00:08:28;103006.56;;;3.39;79.48
73341;BME280;61578;52.002;5.468;2023-01-29T00:08:59;103002.19;;;3.39;79.45
73341;BME280;61578;52.002;5.468;2023-01-29T00:09:30;102998.72;;;3.43;79.24
73341;BME280;61578;52.002;5.468;2023-01-29T00:10:01;102993.44;;;3.37;79.58
73341;BME280;61578;52.002;5.468;2023-01-29T00:10:32;103008.34;;;3.41;79.27
73341;BME280;61578;52.002;5.468;2023-01-29T00:11:07;102995.22;;;3.43;79.36
73341;BME280;61578;52.002;5.468;2023-01-29T00:11:38;102951.44;;;3.16;79.50
73341;BME280;61578;52.002;5.468;2023-01-29T00:12:09;102997.81;;;3.40;79.39
73341;BME280;61578;52.002;5.468;2023-01-29T00:12:40;102998.69;;;3.40;80.06
73341;BME280;61578;52.002;5.468;2023-01-29T00:13:11;102992.56;;;3.38;79.59
73341;BME280;61578;52.002;5.468;2023-01-29T00:13:42;102954.06;;;3.16;79.97
73341;BME280;61578;52.002;5.468;2023-01-29T00:14:13;102986.44;;;3.30;79.73
73341;BME280;61578;52.002;5.468;2023-01-29T00:14:44;102995.22;;;3.41;79.70
73341;BME280;61578;52.002;5.468;2023-01-29T00:15:15;102998.72;;;3.43;79.35
73341;BME280;61578;52.002;5.468;2023-01-29T00:15:53;102991.69;;;3.41;79.42
73341;BME280;61578;52.002;5.468;2023-01-29T00:16:25;102985.56;;;3.40;79.79
73341;BME280;61578;52.002;5.468;2023-01-29T00:16:56;102993.47;;;3.42;79.85
73341;BME280;61578;52.002;5.468;2023-01-29T00:17:27;102952.31;;;3.16;79.27
73341;BME280;61578;52.002;5.468;2023-01-29T00:17:58;102986.44;;;3.39;79.10
73341;BME280;61578;52.002;5.468;2023-01-29T00:18:29;102985.59;;;3.36;79.41
73341;BME280;61578;52.002;5.468;2023-01-29T00:19:01;102992.56;;;3.40;79.47
73341;BME280;61578;52.002;5.468;2023-01-29T00:19:32;102963.69;;;3.21;79.70
73341;BME280;61578;52.002;5.468;2023-01-29T00:20:03;102983.84;;;3.33;79.76
73341;BME280;61578;52.002;5.468;2023-01-29T00:20:34;102993.47;;;3.32;79.80
73341;BME280;61578;52.002;5.468;2023-01-29T00:21:13;102984.69;;;3.29;79.53
73341;BME280;61578;52.002;5.468;2023-01-29T00:21:46;102981.19;;;3.30;79.63
73341;BME280;61578;52.002;5.468;2023-01-29T00:22:16;102997.84;;;3.33;80.01
73341;BME280;61578;52.002;5.468;2023-01-29T00:22:47;102984.72;;;3.33;79.90
73341;BME280;61578;52.002;5.468;2023-01-29T00:23:18;102921.69;;;2.95;80.10
73341;BME280;61578;52.002;5.468;2023-01-29T00:23:50;102984.69;;;3.32;80.14
73341;BME280;61578;52.002;5.468;2023-01-29T00:24:21;102985.59;;;3.34;79.71
73341;BME280;61578;52.002;5.468;2023-01-29T00:24:52;102984.72;;;3.33;79.80
73341;BME280;61578;52.002;5.468;2023-01-29T00:25:23;102968.94;;;3.30;79.89
73341;BME280;61578;52.002;5.468;2023-01-29T00:25:58;102973.34;;;3.33;79.95
73341;BME280;61578;52.002;5.468;2023-01-29T00:26:30;102978.59;;;3.33;79.57
73341;BME280;61578;52.002;5.468;2023-01-29T00:27:01;102968.97;;;3.35;79.74
73341;BME280;61578;52.002;5.468;2023-01-29T00:27:31;102915.56;;;3.06;79.86
73341;BME280;61578;52.002;5.468;2023-01-29T00:28:02;102947.09;;;3.24;79.67
73341;BME280;61578;52.002;5.468;2023-01-29T00:28:33;102982.94;;;3.39;79.94
73341;BME280;61578;52.002;5.468;2023-01-29T00:29:05;102973.31;;;3.39;80.07
73341;BME280;61578;52.002;5.468;2023-01-29T00:29:36;102968.06;;;3.39;79.96
73341;BME280;61578;52.002;5.468;2023-01-29T00:30:07;102958.44;;;3.32;80.19
73341;BME280;61578;52.002;5.468;2023-01-29T00:30:39;102968.06;;;3.38;80.50
73341;BME280;61578;52.002;5.468;2023-01-29T00:31:12;102972.44;;;3.29;79.98
73341;BME280;61578;52.002;5.468;2023-01-29T00:31:45;102969.81;;;3.32;80.07
73341;BME280;61578;52.002;5.468;2023-01-29T00:32:16;102971.56;;;3.32;80.24
73341;BME280;61578;52.002;5.468;2023-01-29T00:32:47;102961.94;;;3.32;80.14
73341;BME280;61578;52.002;5.468;2023-01-29T00:33:18;102963.69;;;3.27;80.20
73341;BME280;61578;52.002;5.468;2023-01-29T00:33:49;102966.34;;;3.33;80.21
73341;BME280;61578;52.002;5.468;2023-01-29T00:34:20;102967.22;;;3.34;79.75
73341;BME280;61578;52.002;5.468;2023-01-29T00:34:52;102969.84;;;3.36;80.12
73341;BME280;61578;52.002;5.468;2023-01-29T00:35:23;102967.22;;;3.34;80.12
73341;BME280;61578;52.002;5.468;2023-01-29T00:35:54;102963.72;;;3.35;79.92
73341;BME280;61578;52.002;5.468;2023-01-29T00:36:25;102966.34;;;3.33;79.85
73341;BME280;61578;52.002;5.468;2023-01-29T00:36:56;102964.56;;;3.32;79.80
73341;BME280;61578;52.002;5.468;2023-01-29T00:37:34;102961.06;;;3.30;80.27
73341;BME280;61578;52.002;5.468;2023-01-29T00:38:05;102966.31;;;3.29;80.08
73341;BME280;61578;52.002;5.468;2023-01-29T00:38:36;102927.84;;;3.05;79.96
73341;BME280;61578;52.002;5.468;2023-01-29T00:39:08;102965.44;;;3.28;79.94
73341;BME280;61578;52.002;5.468;2023-01-29T00:39:39;102961.94;;;3.28;80.14
73341;BME280;61578;52.002;5.468;2023-01-29T00:40:11;102964.56;;;3.29;80.42
73341;BME280;61578;52.002;5.468;2023-01-29T00:40:42;102951.44;;;3.22;80.16
73341;BME280;61578;52.002;5.468;2023-01-29T00:41:32;102969.81;;;3.26;80.53
73341;BME280;61578;52.002;5.468;2023-01-29T00:42:21;102954.94;;;3.22;80.72
73341;BME280;61578;52.002;5.468;2023-01-29T00:43:10;102937.44;;;3.09;80.63
73341;BME280;61578;52.002;5.468;2023-01-29T00:44:00;102953.19;;;3.20;80.65
73341;BME280;61578;52.002;5.468;2023-01-29T00:44:49;102961.97;;;3.25;80.46
73341;BME280;61578;52.002;5.468;2023-01-29T00:45:29;102954.06;;;3.20;80.71
73341;BME280;61578;52.002;5.468;2023-01-29T00:46:00;102963.69;;;3.29;81.03
73341;BME280;61578;52.002;5.468;2023-01-29T00:46:31;102959.31;;;3.32;81.16
73341;BME280;61578;52.002;5.468;2023-01-29T00:47:02;102965.44;;;3.33;81.09
73341;BME280;61578;52.002;5.468;2023-01-29T00:47:34;102967.22;;;3.34;80.86
73341;BME280;61578;52.002;5.468;2023-01-29T00:48:05;102966.34;;;3.33;80.77
73341;BME280;61578;52.002;5.468;2023-01-29T00:48:36;102970.72;;;3.33;80.43
73341;BME280;61578;52.002;5.468;2023-01-29T00:49:08;102966.31;;;3.32;81.00
73341;BME280;61578;52.002;5.468;2023-01-29T00:49:39;102973.31;;;3.31;81.01
73341;BME280;61578;52.002;5.468;2023-01-29T00:50:11;102968.94;;;3.30;80.83
73341;BME280;61578;52.002;5.468;2023-01-29T00:50:42;102969.81;;;3.28;80.98
73341;BME280;61578;52.002;5.468;2023-01-29T00:51:16;102965.44;;;3.30;80.61
73341;BME280;61578;52.002;5.468;2023-01-29T00:51:47;102975.06;;;3.31;80.81
73341;BME280;61578;52.002;5.468;2023-01-29T00:52:39;102962.84;;;3.25;80.85
73341;BME280;61578;52.002;5.468;2023-01-29T00:53:10;102975.94;;;3.31;80.65
73341;BME280;61578;52.002;5.468;2023-01-29T00:53:41;102989.06;;;3.31;81.00
73341;BME280;61578;52.002;5.468;2023-01-29T00:54:11;102975.06;;;3.31;81.35
73341;BME280;61578;52.002;5.468;2023-01-29T00:54:42;102970.69;;;3.31;81.45
73341;BME280;61578;52.002;5.468;2023-01-29T00:55:13;102976.81;;;3.27;81.26
73341;BME280;61578;52.002;5.468;2023-01-29T00:55:44;102968.06;;;3.30;81.61
73341;BME280;61578;52.002;5.468;2023-01-29T00:56:14;102967.22;;;3.25;81.26
73341;BME280;61578;52.002;5.468;2023-01-29T00:56:45;102968.06;;;3.28;81.52
73341;BME280;61578;52.002;5.468;2023-01-29T00:57:16;102970.69;;;3.27;80.99
73341;BME280;61578;52.002;5.468;2023-01-29T00:57:47;102968.09;;;3.24;81.17
73341;BME280;61578;52.002;5.468;2023-01-29T00:58:18;102922.56;;;2.99;80.98
73341;BME280;61578;52.002;5.468;2023-01-29T00:58:51;102973.31;;;3.22;81.07
73341;BME280;61578;52.002;5.468;2023-01-29T00:59:23;102984.69;;;3.27;80.73
73341;BME280;61578;52.002;5.468;2023-01-29T00:59:54;102968.94;;;3.29;80.95
73341;BME280;61578;52.002;5.468;2023-01-29T01:00:24;102971.59;;;3.33;81.01
73341;BME280;61578;52.002;5.468;2023-01-29T01:00:56;102975.06;;;3.31;80.63
73341;BME280;61578;52.002;5.468;2023-01-29T01:01:27;102972.47;;;3.36;80.69
73341;BME280;61578;52.002;5.468;2023-01-29T01:02:16;102958.44;;;3.32;80.45
73341;BME280;61578;52.002;5.468;2023-01-29T01:03:09;102967.19;;;3.29;80.52
73341;BME280;61578;52.002;5.468;2023-01-29T01:03:40;102913.84;;;3.03;80.29
73341;BME280;61578;52.002;5.468;2023-01-29T01:04:12;102970.72;;;3.33;80.51
73341;BME280;61578;52.002;5.468;2023-01-29T01:04:46;102959.31;;;3.29;80.48
73341;BME280;61578;52.002;5.468;2023-01-29T01:05:18;102963.69;;;3.27;80.62
73341;BME280;61578;52.002;5.468;2023-01-29T01:05:48;102968.06;;;3.28;80.44
73341;BME280;61578;52.002;5.468;2023-01-29T01:06:19;102969.81;;;3.32;80.31
73341;BME280;61578;52.002;5.468;2023-01-29T01:06:50;102970.69;;;3.30;80.32
73341;BME280;61578;52.002;5.468;2023-01-29T01:07:21;102967.19;;;3.26;80.23
73341;BME280;61578;52.002;5.468;2023-01-29T01:07:55;102965.44;;;3.30;80.57
73341;BME280;61578;52.002;5.468;2023-01-29T01:08:27;102964.56;;;3.26;80.75
73341;BME280;61578;52.002;5.468;2023-01-29T01:09:16;102973.34;;;3.25;81.04
73341;BME280;61578;52.002;5.468;2023-01-29T01:10:07;102961.06;;;3.29;81.39
73341;BME280;61578;52.002;5.468;2023-01-29T01:10:58;102963.69;;;3.30;81.11
73341;BME280;61578;52.002;5.468;2023-01-29T01:11:33;102961.06;;;3.30;80.89
73341;BME280;61578;52.002;5.468;2023-01-29T01:12:04;102957.56;;;3.30;81.12
73341;BME280;61578;52.002;5.468;2023-01-29T01:12:35;102956.69;;;3.29;80.84
73341;BME280;61578;52.002;5.468;2023-01-29T01:13:06;102955.81;;;3.30;80.75
73341;BME280;61578;52.002;5.468;2023-01-29T01:13:37;102959.31;;;3.31;81.01
73341;BME280;61578;52.002;5.468;2023-01-29T01:14:08;102891.97;;;3.00;81.21
73341;BME280;61578;52.002;5.468;2023-01-29T01:14:39;102953.19;;;3.32;80.85
73341;BME280;61578;52.002;5.468;2023-01-29T01:15:12;102949.69;;;3.33;80.96
73341;BME280;61578;52.002;5.468;2023-01-29T01:15:43;102950.56;;;3.32;80.55
73341;BME280;61578;52.002;5.468;2023-01-29T01:16:16;102897.22;;;3.03;80.77
73341;BME280;61578;52.002;5.468;2023-01-29T01:16:48;102949.69;;;3.31;80.54
73341;BME280;61578;52.002;5.468;2023-01-29T01:17:19;102954.06;;;3.32;81.05
73341;BME280;61578;52.002;5.468;2023-01-29T01:17:54;102941.81;;;3.30;80.82
73341;BME280;61578;52.002;5.468;2023-01-29T01:18:30;102945.31;;;3.32;80.47
73341;BME280;61578;52.002;5.468;2023-01-29T01:19:02;102947.06;;;3.30;80.44
73341;BME280;61578;52.002;5.468;2023-01-29T01:19:34;102954.94;;;3.31;80.58
73341;BME280;61578;52.002;5.468;2023-01-29T01:20:05;102891.94;;;2.98;80.64
73341;BME280;61578;52.002;5.468;2023-01-29T01:20:36;102944.44;;;3.30;80.62
73341;BME280;61578;52.002;5.468;2023-01-29T01:21:08;102951.47;;;3.36;81.07
73341;BME280;61578;52.002;5.468;2023-01-29T01:21:39;102956.72;;;3.34;80.98
73341;BME280;61578;52.002;5.468;2023-01-29T01:22:14;102947.06;;;3.33;81.19
73341;BME280;61578;52.002;5.468;2023-01-29T01:22:45;102931.34;;;3.24;80.94
73341;BME280;61578;52.002;5.468;2023-01-29T01:23:18;102944.47;;;3.35;81.00
73341;BME280;61578;52.002;5.468;2023-01-29T01:23:49;102963.72;;;3.33;80.67
73341;BME280;61578;52.002;5.468;2023-01-29T01:24:21;102962.84;;;3.35;80.22
73341;BME280;61578;52.002;5.468;2023-01-29T01:24:52;102950.59;;;3.35;80.53
73341;BME280;61578;52.002;5.468;2023-01-29T01:25:24;102943.56;;;3.32;80.37
73341;BME280;61578;52.002;5.468;2023-01-29T01:25:56;102951.44;;;3.31;80.70
73341;BME280;61578;52.002;5.468;2023-01-29T01:26:27;102927.81;;;3.20;80.36
73341;BME280;61578;52.002;5.468;2023-01-29T01:26:58;102941.81;;;3.33;80.21
73341;BME280;61578;52.002;5.468;2023-01-29T01:27:28;102941.81;;;3.31;80.28
73341;BME280;61578;52.002;5.468;2023-01-29T01:27:59;102948.81;;;3.26;80.08
73341;BME280;61578;52.002;5.468;2023-01-29T01:28:30;102898.94;;;3.07;80.56
73341;BME280;61578;52.002;5.468;2023-01-29T01:29:00;102892.81;;;3.06;80.68
73341;BME280;61578;52.002;5.468;2023-01-29T01:29:31;102942.69;;;3.29;80.44
73341;BME280;61578;52.002;5.468;2023-01-29T01:30:03;102945.31;;;3.33;80.24
73341;BME280;61578;52.002;5.468;2023-01-29T01:30:35;102951.47;;;3.34;80.33
73341;BME280;61578;52.002;5.468;2023-01-29T01:31:13;102946.19;;;3.29;80.62
73341;BME280;61578;52.002;5.468;2023-01-29T01:31:44;102946.19;;;3.32;80.84
73341;BME280;61578;52.002;5.468;2023-01-29T01:32:15;102950.59;;;3.24;80.98
73341;BME280;61578;52.002;5.468;2023-01-29T01:32:46;102947.06;;;3.31;80.54
73341;BME280;61578;52.002;5.468;2023-01-29T01:33:17;102953.22;;;3.33;81.08
73341;BME280;61578;52.002;5.468;2023-01-29T01:33:47;102945.34;;;3.35;80.76
73341;BME280;61578;52.002;5.468;2023-01-29T01:34:20;102941.81;;;3.36;80.74
73341;BME280;61578;52.002;5.468;2023-01-29T01:34:51;102948.84;;;3.36;80.65
73341;BME280;61578;52.002;5.468;2023-01-29T01:35:22;102950.59;;;3.35;80.41
73341;BME280;61578;52.002;5.468;2023-01-29T01:35:53;102941.81;;;3.35;80.48
73341;BME280;61578;52.002;5.468;2023-01-29T01:36:24;102945.34;;;3.35;80.67
73341;BME280;61578;52.002;5.468;2023-01-29T01:36:55;102934.81;;;3.29;80.92
73341;BME280;61578;52.002;5.468;2023-01-29T01:37:25;102943.59;;;3.36;81.02
73341;BME280;61578;52.002;5.468;2023-01-29T01:37:56;102941.81;;;3.35;80.93
73341;BME280;61578;52.002;5.468;2023-01-29T01:38:27;102909.47;;;3.13;80.84
73341;BME280;61578;52.002;5.468;2023-01-29T01:38:58;102916.47;;;3.24;80.72
73341;BME280;61578;52.002;5.468;2023-01-29T01:39:29;102935.69;;;3.39;80.98
73341;BME280;61578;52.002;5.468;2023-01-29T01:39:59;102940.06;;;3.38;80.34
73341;BME280;61578;52.002;5.468;2023-01-29T01:40:30;102946.19;;;3.42;80.66
73341;BME280;61578;52.002;5.468;2023-01-29T01:41:04;102941.81;;;3.38;80.41
73341;BME280;61578;52.002;5.468;2023-01-29T01:41:34;102891.94;;;3.06;80.41
73341;BME280;61578;52.002;5.468;2023-01-29T01:42:11;102910.31;;;3.18;80.15
73341;BME280;61578;52.002;5.468;2023-01-29T01:42:45;102952.31;;;3.41;80.21
73341;BME280;61578;52.002;5.468;2023-01-29T01:43:18;102939.19;;;3.33;79.99
73341;BME280;61578;52.002;5.468;2023-01-29T01:43:55;102956.69;;;3.42;80.09
73341;BME280;61578;52.002;5.468;2023-01-29T01:44:52;102955.81;;;3.43;80.02
73341;BME280;61578;52.002;5.468;2023-01-29T01:45:32;102954.06;;;3.39;79.80
73341;BME280;61578;52.002;5.468;2023-01-29T01:46:05;102950.56;;;3.40;80.17
73341;BME280;61578;52.002;5.468;2023-01-29T01:46:36;102943.56;;;3.39;80.58
73341;BME280;61578;52.002;5.468;2023-01-29T01:47:07;102945.31;;;3.38;80.43
73341;BME280;61578;52.002;5.468;2023-01-29T01:47:48;102954.06;;;3.43;80.20
73341;BME280;61578;52.002;5.468;2023-01-29T01:48:25;102954.06;;;3.42;80.25
73341;BME280;61578;52.002;5.468;2023-01-29T01:49:08;102954.06;;;3.43;80.58
73341;BME280;61578;52.002;5.468;2023-01-29T01:49:43;102912.94;;;3.22;80.34
73341;BME280;61578;52.002;5.468;2023-01-29T01:50:58;102957.56;;;3.53;79.79
73341;BME280;61578;52.002;5.468;2023-01-29T01:51:42;102954.94;;;3.50;79.75
73341;BME280;61578;52.002;5.468;2023-01-29T01:52:19;102950.56;;;3.43;80.20
73341;BME280;61578;52.002;5.468;2023-01-29T01:52:57;102967.19;;;3.46;80.01
73341;BME280;61578;52.002;5.468;2023-01-29T01:53:40;102960.19;;;3.48;79.81
73341;BME280;61578;52.002;5.468;2023-01-29T01:54:22;102968.97;;;3.46;79.98
73341;BME280;61578;52.002;5.468;2023-01-29T01:54:58;102954.06;;;3.42;80.08
73341;BME280;61578;52.002;5.468;2023-01-29T01:55:32;102967.22;;;3.45;80.41
73341;BME280;61578;52.002;5.468;2023-01-29T01:56:14;102950.59;;;3.35;80.19
73341;BME280;61578;52.002;5.468;2023-01-29T01:56:56;102961.94;;;3.43;80.04
73341;BME280;61578;52.002;5.468;2023-01-29T01:57:40;102953.19;;;3.40;80.44
73341;BME280;61578;52.002;5.468;2023-01-29T01:58:23;102943.59;;;3.36;80.34
73341;BME280;61578;52.002;5.468;2023-01-29T01:58:58;102960.19;;;3.48;79.97
73341;BME280;61578;52.002;5.468;2023-01-29T01:59:32;102949.69;;;3.45;80.05
73341;BME280;61578;52.002;5.468;2023-01-29T02:00:08;102960.19;;;3.48;80.25
73341;BME280;61578;52.002;5.468;2023-01-29T02:00:42;102965.44;;;3.54;79.84
73341;BME280;61578;52.002;5.468;2023-01-29T02:01:13;102903.31;;;3.18;79.98
73341;BME280;61578;52.002;5.468;2023-01-29T02:01:48;102966.28;;;3.56;79.90
73341;BME280;61578;52.002;5.468;2023-01-29T02:02:24;102954.03;;;3.57;79.94
73341;BME280;61578;52.002;5.468;2023-01-29T02:03:16;102961.94;;;3.55;79.48
73341;BME280;61578;52.002;5.468;2023-01-29T02:04:16;102963.66;;;3.59;78.79
73341;BME280;61578;52.002;5.468;2023-01-29T02:05:13;102969.78;;;3.57;79.56
73341;BME280;61578;52.002;5.468;2023-01-29T02:06:02;102968.06;;;3.51;79.71
73341;BME280;61578;52.002;5.468;2023-01-29T02:06:54;102970.69;;;3.53;80.11
73341;BME280;61578;52.002;5.468;2023-01-29T02:07:49;102935.69;;;3.28;79.57
73341;BME280;61578;52.002;5.468;2023-01-29T02:09:01;102961.94;;;3.52;79.36
73341;BME280;61578;52.002;5.468;2023-01-29T02:10:11;102952.31;;;3.53;79.58
73341;BME280;61578;52.002;5.468;2023-01-29T02:10:49;102940.06;;;3.44;79.30
73341;BME280;61578;52.002;5.468;2023-01-29T02:11:20;102965.44;;;3.54;79.87
73341;BME280;61578;52.002;5.468;2023-01-29T02:11:51;102970.69;;;3.56;79.84
73341;BME280;61578;52.002;5.468;2023-01-29T02:12:22;102955.78;;;3.58;79.40
73341;BME280;61578;52.002;5.468;2023-01-29T02:12:54;102930.44;;;3.45;79.40
73341;BME280;61578;52.002;5.468;2023-01-29T02:13:25;102958.41;;;3.58;79.55
73341;BME280;61578;52.002;5.468;2023-01-29T02:13:56;102947.91;;;3.58;79.54
73341;BME280;61578;52.002;5.468;2023-01-29T02:14:28;102964.53;;;3.58;79.49
73341;BME280;61578;52.002;5.468;2023-01-29T02:15:01;102955.78;;;3.58;79.49
73341;BME280;61578;52.002;5.468;2023-01-29T02:15:32;102954.06;;;3.51;79.45
73341;BME280;61578;52.002;5.468;2023-01-29T02:16:03;102963.66;;;3.58;79.57
73341;BME280;61578;52.002;5.468;2023-01-29T02:16:35;102954.94;;;3.54;79.51
73341;BME280;61578;52.002;5.468;2023-01-29T02:17:11;102956.69;;;3.52;79.47
73341;BME280;61578;52.002;5.468;2023-01-29T02:17:45;102947.94;;;3.53;79.65
73341;BME280;61578;52.002;5.468;2023-01-29T02:18:20;102954.03;;;3.57;80.09
73341;BME280;61578;52.002;5.468;2023-01-29T02:18:52;102958.41;;;3.56;79.92
73341;BME280;61578;52.002;5.468;2023-01-29T02:21:22;102954.91;;;3.60;79.20
73341;BME280;61578;52.002;5.468;2023-01-29T02:22:42;102923.44;;;3.44;79.35
73341;BME280;61578;52.002;5.468;2023-01-29T02:23:42;102950.53;;;3.56;79.15
73341;BME280;61578;52.002;5.468;2023-01-29T02:24:54;102950.56;;;3.53;79.98
73341;BME280;61578;52.002;5.468;2023-01-29T02:27:08;102945.31;;;3.46;79.52
73341;BME280;61578;52.002;5.468;2023-01-29T02:30:39;102940.91;;;3.48;79.91
73341;BME280;61578;52.002;5.468;2023-01-29T02:31:39;102947.06;;;3.50;79.96
73341;BME280;61578;52.002;5.468;2023-01-29T02:33:10;102945.31;;;3.49;79.79
73341;BME280;61578;52.002;5.468;2023-01-29T02:35:15;102950.56;;;3.47;80.04
73341;BME280;61578;52.002;5.468;2023-01-29T02:37:11;102942.66;;;3.47;79.58
73341;BME280;61578;52.002;5.468;2023-01-29T02:37:55;102929.56;;;3.40;79.46
73341;BME280;61578;52.002;5.468;2023-01-29T02:39:56;102940.03;;;3.47;79.56
73341;BME280;61578;52.002;5.468;2023-01-29T02:41:08;102944.41;;;3.47;79.28
73341;BME280;61578;52.002;5.468;2023-01-29T02:41:59;102934.81;;;3.46;79.35
73341;BME280;61578;52.002;5.468;2023-01-29T02:43:07;102943.56;;;3.42;79.03
73341;BME280;61578;52.002;5.468;2023-01-29T02:44:02;102948.81;;;3.48;79.28
73341;BME280;61578;52.002;5.468;2023-01-29T02:44:46;102946.16;;;3.46;79.45
73341;BME280;61578;52.002;5.468;2023-01-29T02:45:47;102951.44;;;3.45;79.66
73341;BME280;61578;52.002;5.468;2023-01-29T02:46:45;102953.19;;;3.44;79.26
73341;BME280;61578;52.002;5.468;2023-01-29T02:47:33;102948.81;;;3.45;79.16
73341;BME280;61578;52.002;5.468;2023-01-29T02:48:18;102958.44;;;3.44;79.59
73341;BME280;61578;52.002;5.468;2023-01-29T02:49:09;102958.47;;;3.46;79.86
73341;BME280;61578;52.002;5.468;2023-01-29T02:49:59;102954.94;;;3.47;79.10
73341;BME280;61578;52.002;5.468;2023-01-29T02:50:42;102913.81;;;3.20;78.93
73341;BME280;61578;52.002;5.468;2023-01-29T02:51:45;102957.59;;;3.45;78.68
73341;BME280;61578;52.002;5.468;2023-01-29T02:53:05;102959.31;;;3.49;78.85
73341;BME280;61578;52.002;5.468;2023-01-29T02:54:02;102958.44;;;3.47;78.93
73341;BME280;61578;52.002;5.468;2023-01-29T02:54:56;102959.31;;;3.48;79.17
73341;BME280;61578;52.002;5.468;2023-01-29T02:55:43;102959.28;;;3.46;79.10
73341;BME280;61578;52.002;5.468;2023-01-29T02:56:51;102948.81;;;3.42;79.11
73341;BME280;61578;52.002;5.468;2023-01-29T02:57:29;102947.94;;;3.44;78.81
73341;BME280;61578;52.002;5.468;2023-01-29T02:59:11;102957.56;;;3.47;78.65
73341;BME280;61578;52.002;5.468;2023-01-29T02:59:55;102961.94;;;3.48;78.63
73341;BME280;61578;52.002;5.468;2023-01-29T03:00:36;102954.94;;;3.44;78.22
73341;BME280;61578;52.002;5.468;2023-01-29T03:03:02;102959.34;;;3.45;78.74
73341;BME280;61578;52.002;5.468;2023-01-29T03:03:52;102906.81;;;3.17;78.71
73341;BME280;61578;52.002;5.468;2023-01-29T03:04:36;102958.44;;;3.44;78.47
73341;BME280;61578;52.002;5.468;2023-01-29T03:05:17;102951.44;;;3.43;78.72
73341;BME280;61578;52.002;5.468;2023-01-29T03:06:06;102962.81;;;3.53;78.84
73341;BME280;61578;52.002;5.468;2023-01-29T03:06:54;102957.53;;;3.57;78.59
73341;BME280;61578;52.002;5.468;2023-01-29T03:07:39;102960.16;;;3.57;78.34
73341;BME280;61578;52.002;5.468;2023-01-29T03:08:56;102962.81;;;3.54;78.53
73341;BME280;61578;52.002;5.468;2023-01-29T03:09:45;102969.81;;;3.54;78.12
73341;BME280;61578;52.002;5.468;2023-01-29T03:11:16;102948.81;;;3.45;78.10
73341;BME280;61578;52.002;5.468;2023-01-29T03:11:49;102947.94;;;3.50;78.46
73341;BME280;61578;52.002;5.468;2023-01-29T03:12:27;102953.19;;;3.52;78.50
73341;BME280;61578;52.002;5.468;2023-01-29T03:13:16;102949.69;;;3.50;78.20
73341;BME280;61578;52.002;5.468;2023-01-29T03:13:56;102957.56;;;3.53;78.77
73341;BME280;61578;52.002;5.468;2023-01-29T03:14:37;102947.06;;;3.50;78.15
73341;BME280;61578;52.002;5.468;2023-01-29T03:15:44;102946.19;;;3.54;79.08
73341;BME280;61578;52.002;5.468;2023-01-29T03:17:23;102957.56;;;3.54;78.13
73341;BME280;61578;52.002;5.468;2023-01-29T03:18:17;102901.56;;;3.20;78.40
73341;BME280;61578;52.002;5.468;2023-01-29T03:19:09;102952.31;;;3.50;79.02
73341;BME280;61578;52.002;5.468;2023-01-29T03:19:47;102953.22;;;3.46;78.66
73341;BME280;61578;52.002;5.468;2023-01-29T03:20:23;102941.81;;;3.44;78.84
73341;BME280;61578;52.002;5.468;2023-01-29T03:21:07;102949.69;;;3.45;79.38
73341;BME280;61578;52.002;5.468;2023-01-29T03:22:17;102947.06;;;3.44;78.41
73341;BME280;61578;52.002;5.468;2023-01-29T03:22:57;102936.56;;;3.42;78.02
73341;BME280;61578;52.002;5.468;2023-01-29T03:23:35;102955.81;;;3.41;78.27
73341;BME280;61578;52.002;5.468;2023-01-29T03:25:45;102926.06;;;3.41;78.46
73341;BME280;61578;52.002;5.468;2023-01-29T03:26:35;102935.69;;;3.45;78.62
73341;BME280;61578;52.002;5.468;2023-01-29T03:27:35;102933.94;;;3.45;77.94
73341;BME280;61578;52.002;5.468;2023-01-29T03:28:32;102932.19;;;3.46;78.53
73341;BME280;61578;52.002;5.468;2023-01-29T03:29:22;102923.44;;;3.42;79.04
73341;BME280;61578;52.002;5.468;2023-01-29T03:30:15;102893.69;;;3.20;79.09
73341;BME280;61578;52.002;5.468;2023-01-29T03:31:10;102939.19;;;3.45;78.62
73341;BME280;61578;52.002;5.468;2023-01-29T03:32:01;102935.69;;;3.45;78.63
73341;BME280;61578;52.002;5.468;2023-01-29T03:32:39;102934.81;;;3.46;78.88
73341;BME280;61578;52.002;5.468;2023-01-29T03:33:17;102938.31;;;3.45;78.98
73341;BME280;61578;52.002;5.468;2023-01-29T03:34:00;102933.06;;;3.43;78.76
73341;BME280;61578;52.002;5.468;2023-01-29T03:34:46;102926.94;;;3.41;78.69
73341;BME280;61578;52.002;5.468;2023-01-29T03:35:25;102923.44;;;3.42;78.62
73341;BME280;61578;52.002;5.468;2023-01-29T03:36:32;102912.91;;;3.36;78.66
73341;BME280;61578;52.002;5.468;2023-01-29T03:37:35;102911.16;;;3.47;78.39
73341;BME280;61578;52.002;5.468;2023-01-29T03:38:11;102912.03;;;3.48;78.59